Time,TemperatureF,DewpointF,PressureIn,WindDirection,WindDirectionDegrees,WindSpeedMPH,WindSpeedGustMPH,Humidity,HourlyPrecipIn,Conditions,Clouds,dailyrainin,SolarRadiationWatts/m^2,SoftwareType,DateUTC
2013-05-13 00:04:00,65.8,15.3,30.38,SSE,148,4.0,0.0,14,0.00,,,0.00,0,WeatherHawk,2013-05-13 05:04:00,
2013-05-13 00:09:00,65.8,13.6,30.39,SSE,157,3.0,0.0,13,0.00,,,0.00,1,WeatherHawk,2013-05-13 05:09:00,
2013-05-13 00:14:00,66.1,15.6,30.39,SSE,147,4.0,-999.0,14,0.00,,,0.00,0,WeatherHawk,2013-05-13 05:14:00,
2013-05-13 00:19:00,66.0,15.5,30.40,SE,128,3.0,0.0,14,0.00,,,0.00,0,WeatherHawk,2013-05-13 05:19:00,
2013-05-13 00:24:00,65.0,14.6,30.40,ESE,118,2.0,0.0,14,0.00,,,0.00,0,WeatherHawk,2013-05-13 05:24:00,
2013-05-13 00:29:00,64.6,17.4,30.39,SE,140,2.0,0.0,16,0.00,,,0.00,0,WeatherHawk,2013-05-13 05:29:00,
2013-05-13 00:34:00,64.1,17.0,30.39,SSE,148,3.0,-999.0,16,0.00,,,0.00,0,WeatherHawk,2013-05-13 05:34:00,
2013-05-13 00:39:00,64.7,16.0,30.39,SE,142,3.0,-999.0,15,0.00,,,0.00,1,WeatherHawk,2013-05-13 05:39:00,
2013-05-13 00:44:00,64.3,17.2,30.39,SE,135,3.0,0.0,16,0.00,,,0.00,1,WeatherHawk,2013-05-13 05:44:00,
2013-05-13 00:49:00,64.5,17.3,30.39,SE,131,3.0,0.0,16,0.00,,,0.00,0,WeatherHawk,2013-05-13 05:49:00,
2013-05-13 00:54:00,64.0,16.9,30.39,SE,144,4.0,-999.0,16,0.00,,,0.00,1,WeatherHawk,2013-05-13 05:54:00,
2013-05-13 00:59:00,63.8,16.7,30.38,SE,141,5.0,0.0,16,0.00,,,0.00,0,WeatherHawk,2013-05-13 05:59:00,
2013-05-13 01:04:00,63.7,16.7,30.39,ESE,108,2.0,-999.0,16,0.00,,,0.00,0,WeatherHawk,2013-05-13 06:04:00,
2013-05-13 01:09:00,64.8,14.5,30.39,SE,146,6.0,0.0,14,0.00,,,0.00,0,WeatherHawk,2013-05-13 06:09:00,
2013-05-13 01:14:00,64.1,13.9,30.39,SE,136,3.0,0.0,14,0.00,,,0.00,0,WeatherHawk,2013-05-13 06:14:00,
2013-05-13 01:19:00,64.7,16.0,30.39,SE,141,3.0,0.0,15,0.00,,,0.00,1,WeatherHawk,2013-05-13 06:19:00,
2013-05-13 01:24:00,63.7,15.2,30.39,SE,131,0.0,0.0,15,0.00,,,0.00,0,WeatherHawk,2013-05-13 06:24:00,
2013-05-13 01:29:00,64.7,14.4,30.39,SSE,147,4.0,0.0,14,0.00,,,0.00,1,WeatherHawk,2013-05-13 06:29:00,
2013-05-13 01:34:00,64.1,12.3,30.38,ESE,111,3.0,-999.0,13,0.00,,,0.00,0,WeatherHawk,2013-05-13 06:34:00,
2013-05-13 01:39:00,64.2,14.0,30.38,SE,142,5.0,0.0,14,0.00,,,0.00,0,WeatherHawk,2013-05-13 06:39:00,
2013-05-13 01:44:00,63.6,15.1,30.38,SE,139,2.0,-999.0,15,0.00,,,0.00,0,WeatherHawk,2013-05-13 06:44:00,
2013-05-13 01:49:00,63.6,16.6,30.38,SE,137,3.0,0.0,16,0.00,,,0.00,1,WeatherHawk,2013-05-13 06:49:00,
2013-05-13 01:54:00,63.8,15.3,30.38,SE,143,6.0,0.0,15,0.00,,,0.00,0,WeatherHawk,2013-05-13 06:54:00,
2013-05-13 01:59:00,62.7,17.2,30.38,SE,139,2.0,0.0,17,0.00,,,0.00,0,WeatherHawk,2013-05-13 06:59:00,
2013-05-13 02:04:00,62.6,17.2,30.37,SE,127,0.0,0.0,17,0.00,,,0.00,0,WeatherHawk,2013-05-13 07:04:00,
2013-05-13 02:09:00,63.4,19.2,30.37,SE,145,3.0,0.0,18,0.00,,,0.00,0,WeatherHawk,2013-05-13 07:09:00,
2013-05-13 02:14:00,63.2,19.0,30.38,SE,127,3.0,0.0,18,0.00,,,0.00,0,WeatherHawk,2013-05-13 07:14:00,
2013-05-13 02:19:00,61.5,20.1,30.37,SE,133,0.0,-999.0,20,0.00,,,0.00,0,WeatherHawk,2013-05-13 07:19:00,
2013-05-13 02:24:00,62.4,19.6,30.38,SE,133,1.0,0.0,19,0.00,,,0.00,1,WeatherHawk,2013-05-13 07:24:00,
2013-05-13 02:29:00,61.2,22.0,30.38,SE,126,0.0,0.0,22,0.00,,,0.00,1,WeatherHawk,2013-05-13 07:29:00,
2013-05-13 02:34:00,61.6,23.4,30.38,East,99,1.0,0.0,23,0.00,,,0.00,0,WeatherHawk,2013-05-13 07:34:00,
2013-05-13 02:39:00,59.7,21.8,30.37,East,93,0.0,0.0,23,0.00,,,0.00,1,WeatherHawk,2013-05-13 07:39:00,
2013-05-13 02:44:00,61.8,22.6,30.38,SE,132,3.0,-999.0,22,0.00,,,0.00,0,WeatherHawk,2013-05-13 07:44:00,
2013-05-13 02:49:00,61.9,23.7,30.38,ESE,102,1.0,0.0,23,0.00,,,0.00,0,WeatherHawk,2013-05-13 07:49:00,
2013-05-13 02:54:00,61.6,23.5,30.38,SE,131,0.0,-999.0,23,0.00,,,0.00,0,WeatherHawk,2013-05-13 07:54:00,
2013-05-13 02:59:00,60.3,24.4,30.38,ESE,106,0.0,0.0,25,0.00,,,0.00,0,WeatherHawk,2013-05-13 07:59:00,
2013-05-13 03:04:00,60.0,22.1,30.38,SE,143,0.0,-999.0,23,0.00,,,0.00,0,WeatherHawk,2013-05-13 08:04:00,
2013-05-13 03:09:00,58.9,23.2,30.38,East,99,0.0,0.0,25,0.00,,,0.00,0,WeatherHawk,2013-05-13 08:09:00,
2013-05-13 03:14:00,61.0,24.0,30.38,East,99,0.0,0.0,24,0.00,,,0.00,0,WeatherHawk,2013-05-13 08:14:00,
2013-05-13 03:19:00,59.9,22.1,30.38,East,99,0.0,0.0,23,0.00,,,0.00,1,WeatherHawk,2013-05-13 08:19:00,
2013-05-13 03:24:00,60.0,23.1,30.38,ESE,113,0.0,0.0,24,0.00,,,0.00,0,WeatherHawk,2013-05-13 08:24:00,
2013-05-13 03:29:00,62.2,22.9,30.38,SE,137,2.0,-999.0,22,0.00,,,0.00,1,WeatherHawk,2013-05-13 08:29:00,
2013-05-13 03:34:00,60.7,21.7,30.38,ESE,115,0.0,0.0,22,0.00,,,0.00,0,WeatherHawk,2013-05-13 08:34:00,
2013-05-13 03:39:00,61.3,21.1,30.38,South,178,0.0,0.0,21,0.00,,,0.00,1,WeatherHawk,2013-05-13 08:39:00,
2013-05-13 03:44:00,60.9,21.8,30.38,SSE,150,0.0,0.0,22,0.00,,,0.00,1,WeatherHawk,2013-05-13 08:44:00,
2013-05-13 03:49:00,63.0,20.1,30.38,SE,145,5.0,-999.0,19,0.00,,,0.00,1,WeatherHawk,2013-05-13 08:49:00,
2013-05-13 03:54:00,62.2,19.5,30.37,South,187,3.0,0.0,19,0.00,,,0.00,0,WeatherHawk,2013-05-13 08:54:00,
2013-05-13 03:59:00,63.0,16.1,30.37,SSW,196,1.0,0.0,16,0.00,,,0.00,0,WeatherHawk,2013-05-13 08:59:00,
2013-05-13 04:04:00,61.7,17.8,30.37,South,183,0.0,0.0,18,0.00,,,0.00,0,WeatherHawk,2013-05-13 09:04:00,
2013-05-13 04:09:00,61.9,20.4,30.38,SSE,168,0.0,0.0,20,0.00,,,0.00,0,WeatherHawk,2013-05-13 09:09:00,
2013-05-13 04:14:00,62.3,19.5,30.38,SE,140,0.0,0.0,19,0.00,,,0.00,1,WeatherHawk,2013-05-13 09:14:00,
2013-05-13 04:19:00,62.7,19.8,30.37,SSE,149,2.0,-999.0,19,0.00,,,0.00,0,WeatherHawk,2013-05-13 09:19:00,
2013-05-13 04:24:00,60.9,19.6,30.38,SSE,159,0.0,0.0,20,0.00,,,0.00,1,WeatherHawk,2013-05-13 09:24:00,
2013-05-13 04:29:00,61.2,19.9,30.38,SSE,166,0.0,0.0,20,0.00,,,0.00,0,WeatherHawk,2013-05-13 09:29:00,
2013-05-13 04:34:00,61.3,23.2,30.37,SE,131,0.0,-999.0,23,0.00,,,0.00,0,WeatherHawk,2013-05-13 09:34:00,
2013-05-13 04:39:00,59.8,20.9,30.37,SSE,159,1.0,0.0,22,0.00,,,0.00,0,WeatherHawk,2013-05-13 09:39:00,
2013-05-13 04:44:00,62.5,19.7,30.37,South,172,4.0,0.0,19,0.00,,,0.00,0,WeatherHawk,2013-05-13 09:44:00,
2013-05-13 04:49:00,62.9,18.7,30.38,SSE,149,4.0,0.0,18,0.00,,,0.00,0,WeatherHawk,2013-05-13 09:49:00,
2013-05-13 04:54:00,63.0,17.5,30.38,South,178,2.0,-999.0,17,0.00,,,0.00,1,WeatherHawk,2013-05-13 09:54:00,
2013-05-13 04:59:00,63.3,17.8,30.37,SE,142,2.0,0.0,17,0.00,,,0.00,1,WeatherHawk,2013-05-13 09:59:00,
2013-05-13 05:04:00,63.1,17.6,30.37,South,182,4.0,0.0,17,0.00,,,0.00,1,WeatherHawk,2013-05-13 10:04:00,
2013-05-13 05:09:00,63.0,17.5,30.36,SSE,160,3.0,-999.0,17,0.00,,,0.00,0,WeatherHawk,2013-05-13 10:09:00,
2013-05-13 05:14:00,62.8,17.3,30.37,SSW,192,4.0,0.0,17,0.00,,,0.00,0,WeatherHawk,2013-05-13 10:14:00,
2013-05-13 05:19:00,62.6,18.6,30.36,SSE,158,2.0,-999.0,18,0.00,,,0.00,0,WeatherHawk,2013-05-13 10:19:00,
2013-05-13 05:24:00,62.2,19.4,30.38,SSE,164,0.0,0.0,19,0.00,,,0.00,0,WeatherHawk,2013-05-13 10:24:00,
2013-05-13 05:29:00,60.5,21.5,30.37,SSW,192,0.0,0.0,22,0.00,,,0.00,1,WeatherHawk,2013-05-13 10:29:00,
2013-05-13 05:34:00,59.7,20.8,30.37,SSW,192,0.0,0.0,22,0.00,,,0.00,1,WeatherHawk,2013-05-13 10:34:00,
2013-05-13 05:39:00,58.1,21.5,30.38,SSW,192,0.0,0.0,24,0.00,,,0.00,1,WeatherHawk,2013-05-13 10:39:00,
2013-05-13 05:44:00,60.5,24.5,30.37,SSW,192,0.0,0.0,25,0.00,,,0.00,1,WeatherHawk,2013-05-13 10:44:00,
2013-05-13 05:49:00,61.2,24.1,30.38,NE,47,0.0,0.0,24,0.00,,,0.00,0,WeatherHawk,2013-05-13 10:49:00,
2013-05-13 05:54:00,57.1,23.4,30.39,NE,47,0.0,0.0,27,0.00,,,0.00,1,WeatherHawk,2013-05-13 10:54:00,
2013-05-13 05:59:00,57.9,27.4,30.39,NE,47,0.0,0.0,31,0.00,,,0.00,0,WeatherHawk,2013-05-13 10:59:00,
2013-05-13 06:04:00,58.4,27.1,30.39,NNE,22,0.0,0.0,30,0.00,,,0.00,0,WeatherHawk,2013-05-13 11:04:00,
2013-05-13 06:09:00,58.3,28.6,30.40,NNW,347,0.0,0.0,32,0.00,,,0.00,0,WeatherHawk,2013-05-13 11:09:00,
2013-05-13 06:14:00,57.7,28.0,30.40,NNW,347,0.0,0.0,32,0.00,,,0.00,0,WeatherHawk,2013-05-13 11:14:00,
2013-05-13 06:19:00,57.4,27.0,30.40,NNW,347,0.0,0.0,31,0.00,,,0.00,2,WeatherHawk,2013-05-13 11:19:00,
2013-05-13 06:24:00,56.7,27.2,30.41,SSW,203,0.0,0.0,32,0.00,,,0.00,4,WeatherHawk,2013-05-13 11:24:00,
2013-05-13 06:29:00,55.3,26.7,30.41,SSW,203,0.0,0.0,33,0.00,,,0.00,5,WeatherHawk,2013-05-13 11:29:00,
2013-05-13 06:34:00,58.6,30.3,30.41,SSW,203,0.0,0.0,34,0.00,,,0.00,8,WeatherHawk,2013-05-13 11:34:00,
2013-05-13 06:39:00,56.1,27.4,30.41,South,189,0.0,-999.0,33,0.00,,,0.00,12,WeatherHawk,2013-05-13 11:39:00,
2013-05-13 06:44:00,59.0,29.9,30.41,SE,128,0.0,0.0,33,0.00,,,0.00,17,WeatherHawk,2013-05-13 11:44:00,
2013-05-13 06:49:00,59.1,30.0,30.41,SE,128,0.0,0.0,33,0.00,,,0.00,29,WeatherHawk,2013-05-13 11:49:00,
2013-05-13 06:54:00,56.1,28.8,30.42,ESE,102,0.0,-999.0,35,0.00,,,0.00,42,WeatherHawk,2013-05-13 11:54:00,
2013-05-13 06:59:00,57.1,28.3,30.42,East,91,0.0,0.0,33,0.00,,,0.00,47,WeatherHawk,2013-05-13 11:59:00,
2013-05-13 07:04:00,59.1,27.7,30.41,NNE,21,0.0,0.0,30,0.00,,,0.00,62,WeatherHawk,2013-05-13 12:04:00,
2013-05-13 07:09:00,60.5,25.4,30.42,NE,44,0.0,0.0,26,0.00,,,0.00,74,WeatherHawk,2013-05-13 12:09:00,
2013-05-13 07:14:00,61.2,25.1,30.42,NE,44,0.0,0.0,25,0.00,,,0.00,84,WeatherHawk,2013-05-13 12:14:00,
2013-05-13 07:19:00,61.2,25.1,30.41,NE,44,0.0,-999.0,25,0.00,,,0.00,100,WeatherHawk,2013-05-13 12:19:00,
2013-05-13 07:24:00,63.0,24.6,30.41,SE,131,1.0,0.0,23,0.00,,,0.00,116,WeatherHawk,2013-05-13 12:24:00,
2013-05-13 07:29:00,63.1,23.7,30.40,SSE,154,2.0,0.0,22,0.00,,,0.00,130,WeatherHawk,2013-05-13 12:29:00,
2013-05-13 07:34:00,64.5,22.5,30.40,SSE,153,2.0,0.0,20,0.00,,,0.00,144,WeatherHawk,2013-05-13 12:34:00,
2013-05-13 07:39:00,64.4,20.0,30.41,SSE,152,1.0,-999.0,18,0.00,,,0.00,157,WeatherHawk,2013-05-13 12:39:00,
2013-05-13 07:44:00,65.2,20.6,30.40,SSE,148,0.0,0.0,18,0.00,,,0.00,169,WeatherHawk,2013-05-13 12:44:00,
2013-05-13 07:49:00,66.0,18.5,30.41,SSW,210,0.0,-999.0,16,0.00,,,0.00,184,WeatherHawk,2013-05-13 12:49:00,
2013-05-13 07:54:00,66.5,17.4,30.41,SSE,148,1.0,0.0,15,0.00,,,0.00,201,WeatherHawk,2013-05-13 12:54:00,
2013-05-13 07:59:00,67.6,16.8,30.40,South,180,2.0,0.0,14,0.00,,,0.00,218,WeatherHawk,2013-05-13 12:59:00,
2013-05-13 08:04:00,67.7,19.9,30.41,NNW,335,0.0,0.0,16,0.00,,,0.00,235,WeatherHawk,2013-05-13 13:04:00,
2013-05-13 08:10:00,70.2,20.4,30.41,SSW,192,0.0,-999.0,15,0.00,,,0.00,251,WeatherHawk,2013-05-13 13:10:00,
2013-05-13 08:15:00,68.5,15.7,30.41,SSW,205,5.0,0.0,13,0.00,,,0.00,265,WeatherHawk,2013-05-13 13:15:00,
2013-05-13 08:20:00,69.2,14.5,30.41,SSE,162,3.0,0.0,12,0.00,,,0.00,282,WeatherHawk,2013-05-13 13:20:00,
2013-05-13 08:25:00,69.1,16.2,30.42,South,190,4.0,0.0,13,0.00,,,0.00,297,WeatherHawk,2013-05-13 13:25:00,
2013-05-13 08:30:00,69.4,12.6,30.42,South,184,5.0,0.0,11,0.00,,,0.00,315,WeatherHawk,2013-05-13 13:30:00,
2013-05-13 08:35:00,70.2,17.1,30.41,SE,129,4.0,0.0,13,0.00,,,0.00,335,WeatherHawk,2013-05-13 13:35:00,
2013-05-13 08:40:00,70.1,13.2,30.41,SSE,157,4.0,0.0,11,0.00,,,0.00,350,WeatherHawk,2013-05-13 13:40:00,
2013-05-13 08:45:00,69.9,15.0,30.41,South,191,8.0,0.0,12,0.00,,,0.00,368,WeatherHawk,2013-05-13 13:45:00,
2013-05-13 08:50:00,70.6,17.4,30.41,South,178,5.0,0.0,13,0.00,,,0.00,382,WeatherHawk,2013-05-13 13:50:00,
2013-05-13 08:55:00,69.9,15.0,30.41,SE,137,7.0,0.0,12,0.00,,,0.00,401,WeatherHawk,2013-05-13 13:55:00,
2013-05-13 09:00:00,70.2,13.3,30.41,South,170,7.0,0.0,11,0.00,,,0.00,413,WeatherHawk,2013-05-13 14:00:00,
2013-05-13 09:05:00,71.0,13.9,30.41,SSW,192,5.0,0.0,11,0.00,,,0.00,433,WeatherHawk,2013-05-13 14:05:00,
2013-05-13 09:10:00,72.3,16.9,30.42,SSE,155,2.0,0.0,12,0.00,,,0.00,451,WeatherHawk,2013-05-13 14:10:00,
2013-05-13 09:15:00,72.6,15.1,30.41,SW,228,5.0,0.0,11,0.00,,,0.00,470,WeatherHawk,2013-05-13 14:15:00,
2013-05-13 09:20:00,72.7,13.0,30.41,South,178,4.0,-999.0,10,0.00,,,0.00,486,WeatherHawk,2013-05-13 14:20:00,
2013-05-13 09:25:00,72.0,12.5,30.42,South,189,10.0,0.0,10,0.00,,,0.00,505,WeatherHawk,2013-05-13 14:25:00,
2013-05-13 09:30:00,72.7,10.6,30.41,SSW,197,11.0,-999.0,9,0.00,,,0.00,522,WeatherHawk,2013-05-13 14:30:00,
2013-05-13 09:35:00,72.2,14.8,30.40,SSW,203,7.0,0.0,11,0.00,,,0.00,538,WeatherHawk,2013-05-13 14:35:00,
2013-05-13 09:40:00,73.0,10.9,30.40,SSE,162,6.0,0.0,9,0.00,,,0.00,550,WeatherHawk,2013-05-13 14:40:00,
2013-05-13 09:45:00,72.8,8.1,30.42,SSW,196,7.0,-999.0,8,0.00,,,0.00,567,WeatherHawk,2013-05-13 14:45:00,
2013-05-13 09:50:00,72.8,10.7,30.41,South,191,8.0,0.0,9,0.00,,,0.00,581,WeatherHawk,2013-05-13 14:50:00,
2013-05-13 09:55:00,74.6,14.5,30.40,SSW,192,7.0,0.0,10,0.00,,,0.00,602,WeatherHawk,2013-05-13 14:55:00,
2013-05-13 10:00:00,76.0,7.5,30.41,SSW,204,5.0,0.0,7,0.00,,,0.00,617,WeatherHawk,2013-05-13 15:00:00,
2013-05-13 10:05:00,74.0,9.0,30.41,SSE,161,9.0,0.0,8,0.00,,,0.00,632,WeatherHawk,2013-05-13 15:05:00,
2013-05-13 10:10:00,73.4,11.1,30.41,SSE,159,10.0,0.0,9,0.00,,,0.00,649,WeatherHawk,2013-05-13 15:10:00,
2013-05-13 10:15:00,73.1,10.9,30.41,SSW,197,10.0,-999.0,9,0.00,,,0.00,665,WeatherHawk,2013-05-13 15:15:00,
2013-05-13 10:20:00,75.7,12.9,30.39,SSW,197,7.0,0.0,9,0.00,,,0.00,677,WeatherHawk,2013-05-13 15:20:00,
2013-05-13 10:25:00,73.6,5.7,30.40,South,172,12.0,0.0,7,0.00,,,0.00,693,WeatherHawk,2013-05-13 15:25:00,
2013-05-13 10:30:00,73.3,5.5,30.41,SSW,192,11.0,0.0,7,0.00,,,0.00,706,WeatherHawk,2013-05-13 15:30:00,
2013-05-13 10:35:00,75.1,9.8,30.42,SE,146,6.0,-999.0,8,0.00,,,0.00,722,WeatherHawk,2013-05-13 15:35:00,
2013-05-13 10:40:00,74.4,11.9,30.39,South,190,13.0,0.0,9,0.00,,,0.00,733,WeatherHawk,2013-05-13 15:40:00,
2013-05-13 10:45:00,75.1,9.8,30.42,South,170,12.0,0.0,8,0.00,,,0.00,748,WeatherHawk,2013-05-13 15:45:00,
2013-05-13 10:50:00,74.9,6.7,30.41,South,188,5.0,0.0,7,0.00,,,0.00,762,WeatherHawk,2013-05-13 15:50:00,
2013-05-13 10:55:00,75.8,7.4,30.40,SSW,192,10.0,0.0,7,0.00,,,0.00,774,WeatherHawk,2013-05-13 15:55:00,
2013-05-13 11:00:00,76.4,7.8,30.39,SSW,206,9.0,0.0,7,0.00,,,0.00,785,WeatherHawk,2013-05-13 16:00:00,
2013-05-13 11:05:00,76.5,7.9,30.39,ESE,110,9.0,0.0,7,0.00,,,0.00,800,WeatherHawk,2013-05-13 16:05:00,
2013-05-13 11:10:00,77.2,8.4,30.40,South,184,10.0,0.0,7,0.00,,,0.00,808,WeatherHawk,2013-05-13 16:10:00,
2013-05-13 11:15:00,80.2,7.1,30.40,South,182,5.0,0.0,6,0.00,,,0.00,820,WeatherHawk,2013-05-13 16:15:00,
2013-05-13 11:20:00,78.9,12.6,30.38,SSW,193,5.0,0.0,8,0.00,,,0.00,834,WeatherHawk,2013-05-13 16:20:00,
2013-05-13 11:25:00,78.1,5.7,30.40,South,190,8.0,0.0,6,0.00,,,0.00,842,WeatherHawk,2013-05-13 16:25:00,
2013-05-13 11:30:00,78.9,9.6,30.38,South,182,5.0,0.0,7,0.00,,,0.00,855,WeatherHawk,2013-05-13 16:30:00,
2013-05-13 11:35:00,80.6,7.4,30.38,SSE,164,5.0,0.0,6,0.00,,,0.00,861,WeatherHawk,2013-05-13 16:35:00,
2013-05-13 11:40:00,78.0,1.6,30.38,South,181,5.0,0.0,5,0.00,,,0.00,873,WeatherHawk,2013-05-13 16:40:00,
2013-05-13 11:45:00,79.4,10.0,30.38,SSW,205,4.0,0.0,7,0.00,,,0.00,882,WeatherHawk,2013-05-13 16:45:00,
2013-05-13 11:50:00,81.6,-0.6,30.39,SSW,201,5.0,-999.0,4,0.00,,,0.00,892,WeatherHawk,2013-05-13 16:50:00,
2013-05-13 11:55:00,80.4,7.3,30.38,ESE,112,8.0,0.0,6,0.00,,,0.00,897,WeatherHawk,2013-05-13 16:55:00,
2013-05-13 12:00:00,78.1,1.7,30.39,SSW,208,9.0,0.0,5,0.00,,,0.00,910,WeatherHawk,2013-05-13 17:00:00,
2013-05-13 12:05:00,80.0,7.0,30.35,South,178,6.0,0.0,6,0.00,,,0.00,914,WeatherHawk,2013-05-13 17:05:00,
2013-05-13 12:10:00,80.9,11.1,30.36,South,172,7.0,0.0,7,0.00,,,0.00,915,WeatherHawk,2013-05-13 17:10:00,
2013-05-13 12:15:00,82.8,12.5,30.36,SSW,194,4.0,-999.0,7,0.00,,,0.00,929,WeatherHawk,2013-05-13 17:15:00,
2013-05-13 12:20:00,79.9,3.0,30.37,SSE,150,10.0,0.0,5,0.00,,,0.00,930,WeatherHawk,2013-05-13 17:20:00,
2013-05-13 12:25:00,82.1,11.9,30.37,West,279,5.0,0.0,7,0.00,,,0.00,940,WeatherHawk,2013-05-13 17:25:00,
2013-05-13 12:30:00,80.5,-1.4,30.37,SW,222,6.0,0.0,4,0.00,,,0.00,946,WeatherHawk,2013-05-13 17:30:00,
2013-05-13 12:35:00,81.4,8.0,30.37,SSW,213,10.0,0.0,6,0.00,,,0.00,951,WeatherHawk,2013-05-13 17:35:00,
2013-05-13 12:40:00,80.4,3.3,30.37,SSW,206,4.0,0.0,5,0.00,,,0.00,956,WeatherHawk,2013-05-13 17:40:00,
2013-05-13 12:45:00,80.3,7.2,30.36,South,177,7.0,0.0,6,0.00,,,0.00,966,WeatherHawk,2013-05-13 17:45:00,
2013-05-13 12:50:00,81.1,3.8,30.36,SSW,206,5.0,0.0,5,0.00,,,0.00,960,WeatherHawk,2013-05-13 17:50:00,
2013-05-13 12:55:00,83.8,5.7,30.35,West,272,6.0,0.0,5,0.00,,,0.00,969,WeatherHawk,2013-05-13 17:55:00,
2013-05-13 13:00:00,82.3,-0.1,30.36,SSW,203,9.0,0.0,4,0.00,,,0.00,973,WeatherHawk,2013-05-13 18:00:00,
2013-05-13 13:05:00,83.0,0.3,30.35,SW,225,3.0,-999.0,4,0.00,,,0.00,973,WeatherHawk,2013-05-13 18:05:00,
2013-05-13 13:10:00,84.1,13.4,30.35,South,183,6.0,0.0,7,0.00,,,0.00,978,WeatherHawk,2013-05-13 18:10:00,
2013-05-13 13:15:00,84.5,10.2,30.35,West,264,7.0,-999.0,6,0.00,,,0.00,979,WeatherHawk,2013-05-13 18:15:00,
2013-05-13 13:20:00,82.9,0.3,30.34,ESE,119,8.0,0.0,4,0.00,,,0.00,986,WeatherHawk,2013-05-13 18:20:00,
2013-05-13 13:25:00,84.1,13.4,30.33,SSW,198,11.0,0.0,7,0.00,,,0.00,985,WeatherHawk,2013-05-13 18:25:00,
2013-05-13 13:30:00,83.0,5.1,30.34,South,181,3.0,0.0,5,0.00,,,0.00,980,WeatherHawk,2013-05-13 18:30:00,
2013-05-13 13:35:00,85.0,1.7,30.33,SSW,208,5.0,-999.0,4,0.00,,,0.00,980,WeatherHawk,2013-05-13 18:35:00,
2013-05-13 13:40:00,84.4,6.2,30.32,SSE,164,13.0,0.0,5,0.00,,,0.00,978,WeatherHawk,2013-05-13 18:40:00,
2013-05-13 13:45:00,83.8,0.9,30.32,South,178,9.0,0.0,4,0.00,,,0.00,980,WeatherHawk,2013-05-13 18:45:00,
2013-05-13 13:50:00,83.3,0.6,30.33,South,182,11.0,0.0,4,0.00,,,0.00,976,WeatherHawk,2013-05-13 18:50:00,
2013-05-13 13:55:00,84.0,1.0,30.32,SSW,208,11.0,0.0,4,0.00,,,0.00,971,WeatherHawk,2013-05-13 18:55:00,
2013-05-13 14:00:00,82.8,0.2,30.31,SE,145,10.0,0.0,4,0.00,,,0.00,978,WeatherHawk,2013-05-13 19:00:00,
2013-05-13 14:05:00,85.3,14.2,30.32,SSE,162,6.0,0.0,7,0.00,,,0.00,972,WeatherHawk,2013-05-13 19:05:00,
2013-05-13 14:10:00,86.0,2.4,30.31,SSE,149,6.0,0.0,4,0.00,,,0.00,970,WeatherHawk,2013-05-13 19:10:00,
2013-05-13 14:15:00,86.5,2.7,30.31,SSE,163,5.0,0.0,4,0.00,,,0.00,960,WeatherHawk,2013-05-13 19:15:00,
2013-05-13 14:20:00,88.0,8.6,30.32,SSW,193,8.0,0.0,5,0.00,,,0.00,960,WeatherHawk,2013-05-13 19:20:00,
2013-05-13 14:25:00,86.7,7.7,30.31,SW,233,8.0,-999.0,5,0.00,,,0.00,957,WeatherHawk,2013-05-13 19:25:00,
2013-05-13 14:30:00,87.7,8.5,30.32,West,263,6.0,0.0,5,0.00,,,0.00,947,WeatherHawk,2013-05-13 19:30:00,
2013-05-13 14:35:00,86.2,2.5,30.31,East,98,6.0,-999.0,4,0.00,,,0.00,948,WeatherHawk,2013-05-13 19:35:00,
2013-05-13 14:40:00,84.3,6.0,30.31,SSW,200,11.0,0.0,5,0.00,,,0.00,941,WeatherHawk,2013-05-13 19:40:00,
2013-05-13 14:45:00,88.1,8.7,30.31,SSE,154,6.0,-999.0,5,0.00,,,0.00,934,WeatherHawk,2013-05-13 19:45:00,
2013-05-13 14:50:00,85.7,11.1,30.31,SSW,194,14.0,0.0,6,0.00,,,0.00,930,WeatherHawk,2013-05-13 19:50:00,
2013-05-13 14:55:00,85.1,10.6,30.30,SSW,202,9.0,0.0,6,0.00,,,0.00,918,WeatherHawk,2013-05-13 19:55:00,
2013-05-13 15:00:00,84.5,10.2,30.31,South,181,11.0,0.0,6,0.00,,,0.00,911,WeatherHawk,2013-05-13 20:00:00,
2013-05-13 15:05:00,87.1,8.0,30.29,SW,222,8.0,0.0,5,0.00,,,0.00,901,WeatherHawk,2013-05-13 20:05:00,
2013-05-13 15:10:00,85.0,10.6,30.29,SSW,198,14.0,-999.0,6,0.00,,,0.00,897,WeatherHawk,2013-05-13 20:10:00,
2013-05-13 15:15:00,86.1,11.3,30.29,SSE,168,6.0,0.0,6,0.00,,,0.00,886,WeatherHawk,2013-05-13 20:15:00,
2013-05-13 15:20:00,86.9,7.9,30.29,SSW,205,10.0,0.0,5,0.00,,,0.00,882,WeatherHawk,2013-05-13 20:20:00,
2013-05-13 15:25:00,86.0,2.4,30.29,South,178,6.0,0.0,4,0.00,,,0.00,872,WeatherHawk,2013-05-13 20:25:00,
2013-05-13 15:30:00,86.7,15.3,30.31,SSW,211,11.0,0.0,7,0.00,,,0.00,860,WeatherHawk,2013-05-13 20:30:00,
2013-05-13 15:35:00,87.2,12.2,30.31,South,188,8.0,-999.0,6,0.00,,,0.00,853,WeatherHawk,2013-05-13 20:35:00,
2013-05-13 15:40:00,86.6,7.7,30.29,SSW,209,5.0,0.0,5,0.00,,,0.00,841,WeatherHawk,2013-05-13 20:40:00,
2013-05-13 15:45:00,87.3,-2.8,30.29,SSW,211,6.0,0.0,3,0.00,,,0.00,831,WeatherHawk,2013-05-13 20:45:00,
2013-05-13 15:50:00,88.0,16.2,30.29,SW,215,5.0,0.0,7,0.00,,,0.00,817,WeatherHawk,2013-05-13 20:50:00,
2013-05-13 15:55:00,87.1,-3.0,30.28,South,172,7.0,0.0,3,0.00,,,0.00,813,WeatherHawk,2013-05-13 20:55:00,
2013-05-13 16:00:00,87.4,-2.8,30.29,SW,221,12.0,0.0,3,0.00,,,0.00,799,WeatherHawk,2013-05-13 21:00:00,
2013-05-13 16:05:00,86.4,2.7,30.28,SSW,213,7.0,0.0,4,0.00,,,0.00,789,WeatherHawk,2013-05-13 21:05:00,
2013-05-13 16:10:00,85.9,2.3,30.28,SSW,209,10.0,0.0,4,0.00,,,0.00,777,WeatherHawk,2013-05-13 21:10:00,
2013-05-13 16:15:00,85.4,14.3,30.27,SSE,149,8.0,0.0,7,0.00,,,0.00,763,WeatherHawk,2013-05-13 21:15:00,
2013-05-13 16:20:00,86.4,11.6,30.27,SSW,208,11.0,-999.0,6,0.00,,,0.00,753,WeatherHawk,2013-05-13 21:20:00,
2013-05-13 16:25:00,87.2,3.2,30.26,South,189,11.0,0.0,4,0.00,,,0.00,737,WeatherHawk,2013-05-13 21:25:00,
2013-05-13 16:30:00,86.7,-3.2,30.26,SW,235,14.0,-999.0,3,0.00,,,0.00,725,WeatherHawk,2013-05-13 21:30:00,
2013-05-13 16:35:00,87.2,15.7,30.26,South,169,6.0,0.0,7,0.00,,,0.00,714,WeatherHawk,2013-05-13 21:35:00,
2013-05-13 16:40:00,85.2,10.7,30.25,South,190,10.0,0.0,6,0.00,,,0.00,698,WeatherHawk,2013-05-13 21:40:00,
2013-05-13 16:45:00,86.8,-3.2,30.26,SSW,206,9.0,0.0,3,0.00,,,0.00,685,WeatherHawk,2013-05-13 21:45:00,
2013-05-13 16:50:00,86.9,11.9,30.27,SW,216,10.0,0.0,6,0.00,,,0.00,665,WeatherHawk,2013-05-13 21:50:00,
2013-05-13 16:55:00,87.9,12.7,30.27,South,178,5.0,0.0,6,0.00,,,0.00,658,WeatherHawk,2013-05-13 21:55:00,
2013-05-13 17:00:00,88.2,12.9,30.27,SSE,150,7.0,0.0,6,0.00,,,0.00,639,WeatherHawk,2013-05-13 22:00:00,
2013-05-13 17:05:00,86.9,11.9,30.27,South,191,4.0,0.0,6,0.00,,,0.00,623,WeatherHawk,2013-05-13 22:05:00,
2013-05-13 17:10:00,87.7,8.4,30.26,SSW,193,8.0,0.0,5,0.00,,,0.00,610,WeatherHawk,2013-05-13 22:10:00,
2013-05-13 17:15:00,85.2,10.7,30.27,SSE,166,8.0,0.0,6,0.00,,,0.00,596,WeatherHawk,2013-05-13 22:15:00,
2013-05-13 17:20:00,88.7,9.1,30.26,SSW,209,6.0,-999.0,5,0.00,,,0.00,574,WeatherHawk,2013-05-13 22:20:00,
2013-05-13 17:25:00,87.5,12.4,30.24,South,190,8.0,0.0,6,0.00,,,0.00,567,WeatherHawk,2013-05-13 22:25:00,
2013-05-13 17:30:00,86.7,11.8,30.25,SW,216,8.0,-999.0,6,0.00,,,0.00,546,WeatherHawk,2013-05-13 22:30:00,
2013-05-13 17:35:00,86.4,11.6,30.25,South,191,10.0,0.0,6,0.00,,,0.00,526,WeatherHawk,2013-05-13 22:35:00,
2013-05-13 17:40:00,86.9,11.9,30.26,SSW,212,10.0,0.0,6,0.00,,,0.00,512,WeatherHawk,2013-05-13 22:40:00,
2013-05-13 17:45:00,87.2,8.1,30.26,SSW,204,8.0,0.0,5,0.00,,,0.00,497,WeatherHawk,2013-05-13 22:45:00,
2013-05-13 17:50:00,87.7,8.4,30.26,South,190,6.0,0.0,5,0.00,,,0.00,479,WeatherHawk,2013-05-13 22:50:00,
2013-05-13 17:55:00,86.4,11.6,30.25,SSE,148,11.0,0.0,6,0.00,,,0.00,462,WeatherHawk,2013-05-13 22:55:00,
2013-05-13 18:00:00,86.8,11.9,30.25,South,179,10.0,0.0,6,0.00,,,0.00,445,WeatherHawk,2013-05-13 23:00:00,
2013-05-13 18:05:00,85.4,10.9,30.26,South,186,11.0,-999.0,6,0.00,,,0.00,427,WeatherHawk,2013-05-13 23:05:00,
2013-05-13 18:10:00,85.9,11.3,30.26,SE,138,7.0,-999.0,6,0.00,,,0.00,412,WeatherHawk,2013-05-13 23:10:00,
2013-05-13 18:15:00,86.1,11.4,30.27,SSE,147,6.0,0.0,6,0.00,,,0.00,395,WeatherHawk,2013-05-13 23:15:00,
2013-05-13 18:20:00,86.0,11.3,30.25,South,184,10.0,0.0,6,0.00,,,0.00,375,WeatherHawk,2013-05-13 23:20:00,
2013-05-13 18:25:00,86.4,11.6,30.26,SE,142,12.0,0.0,6,0.00,,,0.00,360,WeatherHawk,2013-05-13 23:25:00,
2013-05-13 18:30:00,85.6,14.5,30.26,East,100,12.0,0.0,7,0.00,,,0.00,347,WeatherHawk,2013-05-13 23:30:00,
2013-05-13 18:35:00,85.9,14.7,30.26,SSE,166,14.0,0.0,7,0.00,,,0.00,326,WeatherHawk,2013-05-13 23:35:00,
2013-05-13 18:40:00,85.8,14.6,30.24,South,169,9.0,0.0,7,0.00,,,0.00,309,WeatherHawk,2013-05-13 23:40:00,
2013-05-13 18:45:00,85.5,14.4,30.25,SSE,168,9.0,0.0,7,0.00,,,0.00,291,WeatherHawk,2013-05-13 23:45:00,
2013-05-13 18:50:00,85.4,2.0,30.25,South,172,10.0,-999.0,4,0.00,,,0.00,273,WeatherHawk,2013-05-13 23:50:00,
2013-05-13 18:55:00,86.0,14.8,30.26,SW,220,8.0,0.0,7,0.00,,,0.00,256,WeatherHawk,2013-05-13 23:55:00,
2013-05-13 19:00:00,85.6,14.5,30.26,SSE,167,7.0,0.0,7,0.00,,,0.00,238,WeatherHawk,2013-05-14 00:00:00,
2013-05-13 19:05:00,85.7,11.1,30.26,SSW,196,3.0,-999.0,6,0.00,,,0.00,220,WeatherHawk,2013-05-14 00:05:00,
2013-05-13 19:10:00,85.2,10.7,30.26,SE,144,6.0,0.0,6,0.00,,,0.00,202,WeatherHawk,2013-05-14 00:10:00,
2013-05-13 19:15:00,84.6,6.3,30.26,South,190,9.0,0.0,5,0.00,,,0.00,186,WeatherHawk,2013-05-14 00:15:00,
2013-05-13 19:20:00,84.6,1.4,30.26,SSW,192,5.0,0.0,4,0.00,,,0.00,167,WeatherHawk,2013-05-14 00:20:00,
2013-05-13 19:25:00,84.5,10.2,30.26,South,169,7.0,0.0,6,0.00,,,0.00,149,WeatherHawk,2013-05-14 00:25:00,
2013-05-13 19:30:00,83.9,5.8,30.25,SSE,161,8.0,0.0,5,0.00,,,0.00,131,WeatherHawk,2013-05-14 00:30:00,
2013-05-13 19:35:00,84.3,6.1,30.27,WSW,242,7.0,0.0,5,0.00,,,0.00,118,WeatherHawk,2013-05-14 00:35:00,
2013-05-13 19:40:00,84.1,5.9,30.26,SW,219,7.0,0.0,5,0.00,,,0.00,97,WeatherHawk,2013-05-14 00:40:00,
2013-05-13 19:45:00,83.5,5.5,30.27,SE,142,7.0,0.0,5,0.00,,,0.00,88,WeatherHawk,2013-05-14 00:45:00,
2013-05-13 19:50:00,83.5,9.5,30.27,SSE,164,7.0,-999.0,6,0.00,,,0.00,71,WeatherHawk,2013-05-14 00:50:00,
2013-05-13 19:55:00,83.4,9.4,30.27,South,180,6.0,0.0,6,0.00,,,0.00,57,WeatherHawk,2013-05-14 00:55:00,
2013-05-13 20:00:00,83.1,5.2,30.28,SSE,159,4.0,0.0,5,0.00,,,0.00,41,WeatherHawk,2013-05-14 01:00:00,
2013-05-13 20:05:00,82.7,8.9,30.27,South,188,8.0,-999.0,6,0.00,,,0.00,31,WeatherHawk,2013-05-14 01:05:00,
2013-05-13 20:10:00,82.3,8.7,30.27,SSE,164,4.0,0.0,6,0.00,,,0.00,18,WeatherHawk,2013-05-14 01:10:00,
2013-05-13 20:15:00,82.0,4.4,30.28,SSE,158,9.0,0.0,5,0.00,,,0.00,11,WeatherHawk,2013-05-14 01:15:00,
2013-05-13 20:20:00,81.7,14.7,30.27,South,183,6.0,0.0,8,0.00,,,0.00,6,WeatherHawk,2013-05-14 01:20:00,
2013-05-13 20:25:00,81.2,7.9,30.28,SE,142,3.0,-999.0,6,0.00,,,0.00,5,WeatherHawk,2013-05-14 01:25:00,
2013-05-13 20:30:00,81.0,7.7,30.28,SSE,148,4.0,0.0,6,0.00,,,0.00,1,WeatherHawk,2013-05-14 01:30:00,
2013-05-13 20:35:00,80.7,3.5,30.28,SSW,198,5.0,-999.0,5,0.00,,,0.00,0,WeatherHawk,2013-05-14 01:35:00,
2013-05-13 20:40:00,80.4,10.7,30.28,South,186,5.0,0.0,7,0.00,,,0.00,0,WeatherHawk,2013-05-14 01:40:00,
2013-05-13 20:45:00,80.4,7.3,30.28,SE,133,6.0,0.0,6,0.00,,,0.00,1,WeatherHawk,2013-05-14 01:45:00,
2013-05-13 20:50:00,80.2,13.6,30.28,South,170,6.0,-999.0,8,0.00,,,0.00,0,WeatherHawk,2013-05-14 01:50:00,
2013-05-13 20:55:00,79.8,10.3,30.28,SSE,159,6.0,0.0,7,0.00,,,0.00,0,WeatherHawk,2013-05-14 01:55:00,
2013-05-13 21:00:00,79.3,12.9,30.28,SSE,158,5.0,0.0,8,0.00,,,0.00,0,WeatherHawk,2013-05-14 02:00:00,
2013-05-13 21:05:00,79.6,6.7,30.29,SSE,153,8.0,0.0,6,0.00,,,0.00,1,WeatherHawk,2013-05-14 02:05:00,
2013-05-13 21:10:00,79.1,9.8,30.29,SSE,157,7.0,0.0,7,0.00,,,0.00,0,WeatherHawk,2013-05-14 02:10:00,
2013-05-13 21:15:00,78.9,9.6,30.30,SSE,161,6.0,0.0,7,0.00,,,0.00,1,WeatherHawk,2013-05-14 02:15:00,
2013-05-13 21:20:00,78.4,9.3,30.30,SE,134,6.0,0.0,7,0.00,,,0.00,0,WeatherHawk,2013-05-14 02:20:00,
2013-05-13 21:25:00,78.2,12.1,30.31,SSE,149,5.0,0.0,8,0.00,,,0.00,0,WeatherHawk,2013-05-14 02:25:00,
2013-05-13 21:30:00,77.8,14.5,30.31,South,189,4.0,0.0,9,0.00,,,0.00,1,WeatherHawk,2013-05-14 02:30:00,
2013-05-13 21:35:00,77.9,16.9,30.30,SSE,163,6.0,0.0,10,0.00,,,0.00,0,WeatherHawk,2013-05-14 02:35:00,
2013-05-13 21:40:00,77.6,16.8,30.30,SSW,213,5.0,0.0,10,0.00,,,0.00,1,WeatherHawk,2013-05-14 02:40:00,
2013-05-13 21:45:00,77.8,19.1,30.32,East,88,6.0,-999.0,11,0.00,,,0.00,1,WeatherHawk,2013-05-14 02:45:00,
2013-05-13 21:50:00,77.6,16.7,30.31,South,188,6.0,0.0,10,0.00,,,0.00,0,WeatherHawk,2013-05-14 02:50:00,
2013-05-13 21:55:00,77.2,14.0,30.30,SSW,198,3.0,0.0,9,0.00,,,0.00,0,WeatherHawk,2013-05-14 02:55:00,
2013-05-13 22:00:00,77.1,14.0,30.32,South,171,6.0,0.0,9,0.00,,,0.00,0,WeatherHawk,2013-05-14 03:00:00,
2013-05-13 22:05:00,76.9,16.2,30.31,South,181,4.0,0.0,10,0.00,,,0.00,0,WeatherHawk,2013-05-14 03:05:00,
2013-05-13 22:10:00,76.5,18.1,30.32,SSW,194,5.0,-999.0,11,0.00,,,0.00,0,WeatherHawk,2013-05-14 03:10:00,
2013-05-13 22:15:00,77.0,13.9,30.31,SSE,162,10.0,0.0,9,0.00,,,0.00,0,WeatherHawk,2013-05-14 03:15:00,
2013-05-13 22:20:00,76.5,20.1,30.33,SSE,160,6.0,-999.0,12,0.00,,,0.00,0,WeatherHawk,2013-05-14 03:20:00,
2013-05-13 22:25:00,76.3,17.9,30.32,South,172,8.0,0.0,11,0.00,,,0.00,1,WeatherHawk,2013-05-14 03:25:00,
2013-05-13 22:30:00,76.1,15.6,30.32,South,181,6.0,-999.0,10,0.00,,,0.00,0,WeatherHawk,2013-05-14 03:30:00,
2013-05-13 22:35:00,76.3,20.0,30.32,SSW,212,5.0,0.0,12,0.00,,,0.00,1,WeatherHawk,2013-05-14 03:35:00,
2013-05-13 22:40:00,76.1,17.8,30.33,ESE,119,8.0,0.0,11,0.00,,,0.00,0,WeatherHawk,2013-05-14 03:40:00,
2013-05-13 22:45:00,76.0,19.7,30.33,South,177,7.0,-999.0,12,0.00,,,0.00,1,WeatherHawk,2013-05-14 03:45:00,
2013-05-13 22:50:00,75.8,17.6,30.33,SE,135,11.0,-999.0,11,0.00,,,0.00,1,WeatherHawk,2013-05-14 03:50:00,
2013-05-13 22:55:00,75.7,19.5,30.33,South,179,8.0,0.0,12,0.00,,,0.00,0,WeatherHawk,2013-05-14 03:55:00,
2013-05-13 23:00:00,75.6,19.4,30.33,SSE,147,6.0,0.0,12,0.00,,,0.00,0,WeatherHawk,2013-05-14 04:00:00,
2013-05-13 23:01:00,75.7,19.5,30.32,SSE,154,5.0,0.0,12,0.00,,,0.00,0,WeatherHawk,2013-05-14 04:01:00,
2013-05-13 23:02:00,75.9,17.6,30.33,SE,138,10.0,0.0,11,0.00,,,0.00,0,WeatherHawk,2013-05-14 04:02:00,
2013-05-13 23:03:00,75.5,21.2,30.33,South,173,8.0,0.0,13,0.00,,,0.00,0,WeatherHawk,2013-05-14 04:03:00,
2013-05-13 23:09:00,75.4,17.2,30.32,South,188,7.0,0.0,11,0.00,,,0.00,1,WeatherHawk,2013-05-14 04:09:00,
2013-05-13 23:15:00,75.4,21.2,30.32,SE,145,9.0,0.0,13,0.00,,,0.00,0,WeatherHawk,2013-05-14 04:15:00,
2013-05-13 23:20:00,75.4,19.3,30.32,SSE,162,10.0,0.0,12,0.00,,,0.00,1,WeatherHawk,2013-05-14 04:20:00,
2013-05-13 23:25:00,75.0,19.0,30.34,SSE,155,6.0,0.0,12,0.00,,,0.00,0,WeatherHawk,2013-05-14 04:25:00,
2013-05-13 23:30:00,75.1,19.0,30.32,South,180,9.0,0.0,12,0.00,,,0.00,0,WeatherHawk,2013-05-14 04:30:00,
2013-05-13 23:35:00,74.8,18.8,30.33,SSW,208,7.0,0.0,12,0.00,,,0.00,0,WeatherHawk,2013-05-14 04:35:00,
2013-05-13 23:40:00,75.2,19.1,30.32,South,180,4.0,0.0,12,0.00,,,0.00,1,WeatherHawk,2013-05-14 04:40:00,
2013-05-13 23:45:00,74.5,18.5,30.33,SSE,162,2.0,0.0,12,0.00,,,0.00,0,WeatherHawk,2013-05-14 04:45:00,
2013-05-13 23:50:00,74.4,18.5,30.33,SSW,204,5.0,0.0,12,0.00,,,0.00,0,WeatherHawk,2013-05-14 04:50:00,
2013-05-13 23:55:00,74.7,22.4,30.32,South,185,7.0,-999.0,14,0.00,,,0.00,0,WeatherHawk,2013-05-14 04:55:00,